Time;durP1;ratioP1;P1;durP2;ratioP2;P2;SDS_P1;SDS_P2;PMS_P1;PMS_P2;Temp;Humidity;BMP_temperature;BMP_pressure;BME280_temperature;BME280_humidity;BME280_pressure;Samples;Min_cycle;Max_cycle;Signal;HPM_P1;HPM_P2
2023/01/09 00:01:54;;;;;;;;;2.75;2.75;;;;;;;;5170370;28;11471;-73
2023/01/09 00:04:25;;;;;;;;;3.00;3.00;;;;;;;;5188248;28;11514;-72
2023/01/09 00:06:56;;;;;;;;;1.00;1.00;;;;;;;;5202730;28;11487;-73
2023/01/09 00:09:28;;;;;;;;;1.00;1.00;;;;;;;;5170886;28;12178;-71
2023/01/09 00:12:19;;;;;;;;;1.00;1.00;;;;;;;;5187191;28;11463;-69
2023/01/09 00:14:50;;;;;;;;;0.00;0.00;;;;;;;;5203524;28;11553;-70
2023/01/09 00:17:21;;;;;;;;;0.25;0.25;;;;;;;;5187193;28;11482;-70
2023/01/09 00:19:52;;;;;;;;;0.00;0.00;;;;;;;;5187116;28;11476;-70
2023/01/09 00:22:42;;;;;;;;;0.00;0.00;;;;;;;;5203160;28;11480;-70
2023/01/09 00:25:13;;;;;;;;;0.25;0.25;;;;;;;;5185825;28;12157;-70
2023/01/09 00:27:44;;;;;;;;;7.50;7.50;;;;;;;;5185265;28;11462;-71
2023/01/09 00:30:16;;;;;;;;;0.00;0.00;;;;;;;;5202225;28;11476;-70
2023/01/09 00:32:48;;;;;;;;;19.50;19.00;;;;;;;;5169712;28;11468;-70
2023/01/09 00:35:20;;;;;;;;;8.00;7.50;;;;;;;;5168361;28;11502;-69
2023/01/09 00:37:51;;;;;;;;;3.50;3.50;;;;;;;;5168488;28;11658;-70
2023/01/09 00:40:22;;;;;;;;;7.50;4.50;;;;;;;;5167516;28;11577;-69
2023/01/09 00:42:56;;;;;;;;;11.00;11.00;;;;;;;;5200519;28;11524;-70
2023/01/09 00:45:28;;;;;;;;;0.25;0.25;;;;;;;;5184512;28;11535;-70
2023/01/09 00:48:05;;;;;;;;;13.25;13.25;;;;;;;;5184364;28;11557;-73
2023/01/09 00:50:37;;;;;;;;;9.25;9.00;;;;;;;;5168381;28;12388;-73
2023/01/09 00:53:28;;;;;;;;;4.50;4.50;;;;;;;;5170902;28;11494;-72
2023/01/09 00:56:02;;;;;;;;;1.00;1.00;;;;;;;;5168510;28;11478;-73
2023/01/09 00:58:34;;;;;;;;;4.25;4.25;;;;;;;;5183922;28;11496;-73
2023/01/09 01:01:05;;;;;;;;;0.00;0.00;;;;;;;;5151472;28;11521;-73
2023/01/09 01:03:37;;;;;;;;;1.75;1.75;;;;;;;;5167763;28;11480;-73
2023/01/09 01:08:57;;;;;;;;;1.75;1.75;;;;;;;;5183896;28;11496;-74
2023/01/09 01:11:30;;;;;;;;;3.75;3.50;;;;;;;;5200651;28;11608;-74
2023/01/09 01:14:01;;;;;;;;;13.00;11.00;;;;;;;;5184933;28;11715;-72
2023/01/09 01:16:32;;;;;;;;;24.75;24.75;;;;;;;;5184062;28;11646;-74
2023/01/09 01:19:03;;;;;;;;;0.00;0.00;;;;;;;;5167549;28;11542;-74
2023/01/09 01:21:35;;;;;;;;;2.75;2.75;;;;;;;;5183636;28;11494;-74
2023/01/09 01:24:24;;;;;;;;;1.00;1.00;;;;;;;;5185593;28;8822;-75
2023/01/09 01:27:14;;;;;;;;;0.00;0.00;;;;;;;;5200531;28;11485;-75
2023/01/09 01:29:45;;;;;;;;;2.25;2.25;;;;;;;;5185340;28;11488;-75
2023/01/09 01:32:17;;;;;;;;;0.75;0.75;;;;;;;;5184725;28;11507;-74
2023/01/09 01:34:48;;;;;;;;;0.75;0.75;;;;;;;;5185351;28;11485;-73
2023/01/09 01:37:20;;;;;;;;;1.00;1.00;;;;;;;;5199101;28;11583;-77
2023/01/09 01:39:51;;;;;;;;;4.75;4.75;;;;;;;;5199643;28;8817;-73
2023/01/09 01:42:23;;;;;;;;;0.75;0.75;;;;;;;;5150419;28;12168;-73
2023/01/09 01:45:00;;;;;;;;;1.25;1.25;;;;;;;;5182985;28;11542;-75
2023/01/09 01:47:47;;;;;;;;;1.00;1.00;;;;;;;;5183345;28;11466;-73
2023/01/09 01:50:22;;;;;;;;;1.00;1.00;;;;;;;;5183840;28;11450;-73
2023/01/09 01:52:57;;;;;;;;;4.75;3.50;;;;;;;;5182852;28;11468;-73
2023/01/09 01:55:29;;;;;;;;;1.00;1.00;;;;;;;;5150502;28;11472;-71
2023/01/09 01:58:03;;;;;;;;;9.00;9.00;;;;;;;;5199117;28;11501;-71
2023/01/09 02:00:36;;;;;;;;;0.00;0.00;;;;;;;;5150158;28;11603;-71
2023/01/09 02:03:08;;;;;;;;;3.75;3.75;;;;;;;;5183742;28;11555;-72
2023/01/09 02:05:39;;;;;;;;;4.00;4.00;;;;;;;;5166149;28;11480;-72
2023/01/09 02:08:11;;;;;;;;;6.00;6.00;;;;;;;;5182074;28;11583;-72
2023/01/09 02:10:43;;;;;;;;;9.00;9.00;;;;;;;;5198894;28;11607;-71
2023/01/09 02:13:16;;;;;;;;;17.00;17.00;;;;;;;;5183144;28;11487;-71
2023/01/09 02:16:02;;;;;;;;;10.50;10.50;;;;;;;;5166000;28;8840;-70
2023/01/09 02:18:40;;;;;;;;;5.25;5.25;;;;;;;;5199480;28;11475;-73
2023/01/09 02:21:21;;;;;;;;;8.00;7.00;;;;;;;;5166318;28;12278;-73
2023/01/09 02:24:14;;;;;;;;;33.67;16.33;;;;;;;;5199247;28;11541;-74
2023/01/09 02:27:06;;;;;;;;;0.00;0.00;;;;;;;;5182878;28;9450;-73
2023/01/09 02:29:52;;;;;;;;;6.25;6.25;;;;;;;;5165768;28;11490;-73
2023/01/09 02:32:23;;;;;;;;;7.50;6.00;;;;;;;;5181883;28;11514;-73
2023/01/09 02:38:02;;;;;;;;;9.50;9.00;;;;;;;;5336676;27;13376;-69
2023/01/09 02:41:01;;;;;;;;;2.50;2.50;;;;;;;;5291704;27;11511;-72
2023/01/09 02:43:32;;;;;;;;;1.00;1.00;;;;;;;;5290032;27;11598;-72
2023/01/09 02:46:22;;;;;;;;;0.50;0.50;;;;;;;;5314914;27;11399;-71
2023/01/09 02:48:53;;;;;;;;;0.75;0.75;;;;;;;;5311558;27;11415;-71
2023/01/09 02:51:35;;;;;;;;;1.00;1.00;;;;;;;;5288771;27;11417;-71
2023/01/09 02:54:13;;;;;;;;;10.25;8.00;;;;;;;;5289090;27;12202;-70
2023/01/09 02:57:10;;;;;;;;;12.25;12.25;;;;;;;;5305855;27;11471;-72
2023/01/09 03:00:00;;;;;;;;;1.00;1.00;;;;;;;;5301610;27;11567;-72
2023/01/09 03:02:39;;;;;;;;;17.50;16.75;;;;;;;;5305900;27;11402;-75
2023/01/09 03:05:13;;;;;;;;;9.25;9.25;;;;;;;;5305331;27;11568;-73
2023/01/09 03:07:48;;;;;;;;;15.67;15.67;;;;;;;;5287957;27;11406;-75
2023/01/09 03:10:25;;;;;;;;;10.00;10.00;;;;;;;;5287888;27;8792;-71
2023/01/09 03:17:47;;;;;;;;;6.75;6.75;;;;;;;;5306085;27;9449;-71
2023/01/09 03:25:01;;;;;;;;;10.67;10.67;;;;;;;;5348932;27;12009;-73
2023/01/09 03:27:33;;;;;;;;;6.75;6.75;;;;;;;;5330972;27;8767;-74
2023/01/09 03:30:24;;;;;;;;;9.00;9.00;;;;;;;;5333187;27;12059;-74
2023/01/09 03:32:56;;;;;;;;;9.50;8.25;;;;;;;;5296048;27;11413;-73
2023/01/09 03:35:27;;;;;;;;;6.50;6.50;;;;;;;;5329894;27;11466;-73
2023/01/09 03:38:17;;;;;;;;;4.75;4.75;;;;;;;;5330339;27;12097;-74
2023/01/09 03:40:48;;;;;;;;;2.75;2.75;;;;;;;;5330261;27;11390;-74
2023/01/09 03:43:19;;;;;;;;;3.25;3.25;;;;;;;;5312904;27;8808;-73
2023/01/09 03:45:50;;;;;;;;;6.25;5.75;;;;;;;;5312728;27;8911;-73
2023/01/09 03:48:21;;;;;;;;;12.00;12.00;;;;;;;;5321651;27;8764;-73
2023/01/09 03:50:53;;;;;;;;;3.50;3.50;;;;;;;;5298274;27;11432;-72
2023/01/09 03:53:26;;;;;;;;;4.50;4.50;;;;;;;;5299247;27;11367;-75
2023/01/09 03:55:57;;;;;;;;;15.67;14.33;;;;;;;;5281730;27;12116;-74
2023/01/09 03:58:28;;;;;;;;;9.50;9.50;;;;;;;;5298616;27;8776;-74
2023/01/09 04:01:02;;;;;;;;;1.75;0.75;;;;;;;;5281741;27;8811;-74
2023/01/09 04:03:33;;;;;;;;;9.75;6.25;;;;;;;;5281700;27;12112;-73
2023/01/09 04:06:23;;;;;;;;;9.00;9.00;;;;;;;;5301101;27;12133;-74
2023/01/09 04:08:54;;;;;;;;;12.00;12.00;;;;;;;;5315790;27;8771;-74
2023/01/09 04:11:43;;;;;;;;;14.33;14.33;;;;;;;;5315934;27;9471;-73
2023/01/09 04:14:15;;;;;;;;;17.33;17.33;;;;;;;;5315238;27;8851;-74
2023/01/09 04:16:46;;;;;;;;;21.67;20.00;;;;;;;;5297842;27;8796;-75
2023/01/09 04:19:17;;;;;;;;;24.33;24.33;;;;;;;;5298446;27;8780;-75
2023/01/09 04:21:48;;;;;;;;;17.00;17.00;;;;;;;;5314863;27;9434;-74
2023/01/09 04:24:19;;;;;;;;;14.33;13.67;;;;;;;;5333405;27;8815;-74
2023/01/09 04:26:50;;;;;;;;;15.00;15.00;;;;;;;;5333539;27;8775;-75
2023/01/09 04:29:21;;;;;;;;;10.00;10.00;;;;;;;;5297819;27;8764;-74
2023/01/09 04:31:53;;;;;;;;;2.00;2.00;;;;;;;;5297655;27;11417;-74
2023/01/09 04:34:24;;;;;;;;;12.67;12.67;;;;;;;;5280887;27;11484;-75
2023/01/09 04:36:56;;;;;;;;;13.67;13.67;;;;;;;;5314554;27;8840;-75
2023/01/09 04:39:27;;;;;;;;;9.67;9.67;;;;;;;;5280880;27;8792;-75
2023/01/09 04:41:58;;;;;;;;;4.75;4.25;;;;;;;;5297692;27;8790;-75
2023/01/09 04:44:29;;;;;;;;;9.00;9.00;;;;;;;;5280542;27;11436;-75
2023/01/09 04:47:00;;;;;;;;;12.00;9.00;;;;;;;;5297972;27;9451;-73
2023/01/09 04:49:49;;;;;;;;;9.00;9.00;;;;;;;;5333200;27;11405;-74
2023/01/09 04:52:21;;;;;;;;;4.50;4.50;;;;;;;;5297618;27;11463;-74
2023/01/09 04:55:10;;;;;;;;;5.50;5.50;;;;;;;;5315641;27;11371;-77
2023/01/09 04:57:41;;;;;;;;;2.00;2.00;;;;;;;;5287671;27;11415;-76
2023/01/09 05:00:13;;;;;;;;;22.67;22.67;;;;;;;;5289066;27;11445;-77
2023/01/09 05:02:44;;;;;;;;;9.33;7.67;;;;;;;;5307648;27;9455;-75
2023/01/09 05:05:15;;;;;;;;;4.00;4.00;;;;;;;;5317177;27;8841;-76
2023/01/09 05:07:47;;;;;;;;;3.75;3.75;;;;;;;;5314642;27;11391;-74
2023/01/09 05:10:18;;;;;;;;;18.00;18.00;;;;;;;;5279965;27;12069;-76
2023/01/09 05:13:08;;;;;;;;;15.33;15.33;;;;;;;;5299778;27;8772;-78
2023/01/09 05:15:39;;;;;;;;;13.00;13.00;;;;;;;;5314069;27;8778;-79
2023/01/09 05:18:10;;;;;;;;;9.25;9.25;;;;;;;;5314111;27;9462;-76
2023/01/09 05:20:41;;;;;;;;;4.67;4.67;;;;;;;;5314615;27;8885;-79
2023/01/09 05:23:12;;;;;;;;;0.75;0.75;;;;;;;;5314017;27;8882;-76
2023/01/09 05:26:03;;;;;;;;;9.00;9.00;;;;;;;;5299853;27;11384;-80
2023/01/09 05:32:22;;;;;;;;;18.67;17.67;;;;;;;;5319395;27;8927;-77
2023/01/09 05:42:25;;;;;;;;;13.67;12.67;;;;;;;;5291830;27;11463;-77
2023/01/09 05:44:56;;;;;;;;;7.00;6.25;;;;;;;;5293508;27;8766;-74
2023/01/09 05:47:51;;;;;;;;;6.75;6.75;;;;;;;;5279902;27;8777;-78
2023/01/09 05:50:52;;;;;;;;;15.67;15.67;;;;;;;;5275606;27;12202;-75
2023/01/09 05:53:36;;;;;;;;;6.00;2.50;;;;;;;;5293558;27;11535;-75
2023/01/09 06:00:35;;;;;;;;;9.00;9.00;;;;;;;;5320301;27;8726;-75
2023/01/09 06:07:48;;;;;;;;;4.00;3.00;;;;;;;;5310164;27;8714;-75
2023/01/09 06:10:19;;;;;;;;;7.00;7.00;;;;;;;;5292030;27;11421;-75
2023/01/09 06:12:54;;;;;;;;;0.50;0.50;;;;;;;;5292107;27;9521;-74
2023/01/09 06:15:25;;;;;;;;;10.33;10.33;;;;;;;;5274702;27;11431;-75
2023/01/09 06:17:57;;;;;;;;;11.33;10.67;;;;;;;;5292613;27;8805;-76
2023/01/09 06:20:28;;;;;;;;;3.33;3.33;;;;;;;;5291461;27;8801;-75
2023/01/09 06:22:59;;;;;;;;;1.75;1.75;;;;;;;;5308727;27;8778;-76
2023/01/09 06:25:30;;;;;;;;;15.67;15.67;;;;;;;;5292076;27;8806;-75
2023/01/09 06:28:20;;;;;;;;;22.33;21.67;;;;;;;;5277296;27;8806;-76
2023/01/09 06:30:52;;;;;;;;;20.67;20.33;;;;;;;;5292319;27;8778;-77
2023/01/09 06:33:23;;;;;;;;;14.33;14.33;;;;;;;;5274782;27;8781;-75
2023/01/09 06:36:13;;;;;;;;;15.00;15.00;;;;;;;;5294449;27;9550;-76
2023/01/09 06:38:49;;;;;;;;;12.67;12.67;;;;;;;;5297744;27;9419;-77
2023/01/09 06:41:20;;;;;;;;;9.33;7.67;;;;;;;;5296739;27;8806;-75
2023/01/09 06:43:51;;;;;;;;;28.67;28.67;;;;;;;;5313557;27;8772;-77
2023/01/09 06:46:23;;;;;;;;;21.33;20.33;;;;;;;;5295505;27;8803;-77
2023/01/09 06:48:54;;;;;;;;;15.00;15.00;;;;;;;;5295488;27;8790;-77
2023/01/09 06:51:25;;;;;;;;;12.33;12.33;;;;;;;;5297254;27;8832;-76
2023/01/09 06:53:56;;;;;;;;;6.25;6.25;;;;;;;;5331772;27;8780;-75
2023/01/09 06:56:27;;;;;;;;;6.50;6.50;;;;;;;;5295173;27;11405;-76
2023/01/09 06:59:00;;;;;;;;;2.75;2.75;;;;;;;;5280493;27;11451;-77
2023/01/09 07:01:31;;;;;;;;;3.75;3.75;;;;;;;;5295890;27;12105;-76
2023/01/09 07:04:04;;;;;;;;;18.25;18.25;;;;;;;;5296024;27;11377;-76
2023/01/09 07:06:35;;;;;;;;;1.25;1.25;;;;;;;;5279333;27;11508;-76
2023/01/09 07:09:25;;;;;;;;;5.25;5.25;;;;;;;;5317194;27;11377;-76
2023/01/09 07:11:59;;;;;;;;;4.00;3.00;;;;;;;;5332858;27;11392;-76
2023/01/09 07:14:30;;;;;;;;;6.25;6.25;;;;;;;;5280839;27;11471;-75
2023/01/09 07:17:02;;;;;;;;;0.00;0.00;;;;;;;;5297598;27;11530;-76
2023/01/09 07:19:51;;;;;;;;;7.67;7.67;;;;;;;;5300438;27;12129;-76
2023/01/09 07:22:22;;;;;;;;;13.33;13.33;;;;;;;;5297070;27;8759;-77
2023/01/09 07:24:54;;;;;;;;;1.00;1.00;;;;;;;;5300656;27;8768;-76
2023/01/09 07:27:25;;;;;;;;;6.33;6.33;;;;;;;;5300215;27;8794;-77
2023/01/09 07:29:56;;;;;;;;;42.33;23.00;;;;;;;;5282499;27;8791;-76
2023/01/09 07:32:27;;;;;;;;;38.33;36.67;;;;;;;;5316344;27;8876;-76
2023/01/09 07:35:01;;;;;;;;;3.00;2.00;;;;;;;;5299549;27;8906;-76
2023/01/09 07:37:34;;;;;;;;;17.33;14.33;;;;;;;;5299047;27;8849;-76
2023/01/09 07:40:06;;;;;;;;;4.50;4.50;;;;;;;;5298751;27;8776;-76
2023/01/09 07:42:37;;;;;;;;;7.00;7.00;;;;;;;;5299243;27;11354;-76
2023/01/09 07:45:09;;;;;;;;;3.25;3.25;;;;;;;;5299106;27;11380;-75
2023/01/09 07:47:40;;;;;;;;;9.25;9.25;;;;;;;;5334936;27;11415;-77
2023/01/09 07:50:12;;;;;;;;;9.50;9.25;;;;;;;;5281684;27;11419;-76
2023/01/09 07:52:44;;;;;;;;;23.00;21.75;;;;;;;;5281811;27;11398;-76
2023/01/09 07:55:15;;;;;;;;;4.00;4.00;;;;;;;;5298707;27;11443;-76
2023/01/09 07:57:48;;;;;;;;;6.00;6.00;;;;;;;;5282030;27;12223;-77
2023/01/09 08:00:23;;;;;;;;;21.50;20.75;;;;;;;;5316754;27;11407;-76
2023/01/09 08:02:54;;;;;;;;;8.00;7.00;;;;;;;;5315910;27;11425;-75
2023/01/09 08:05:25;;;;;;;;;7.75;6.50;;;;;;;;5299416;27;11370;-77
2023/01/09 08:08:00;;;;;;;;;13.00;12.00;;;;;;;;5299704;27;12075;-75
2023/01/09 08:10:41;;;;;;;;;3.00;3.00;;;;;;;;5318678;27;12084;-76
2023/01/09 08:13:13;;;;;;;;;12.75;11.50;;;;;;;;5282442;27;11378;-77
2023/01/09 08:15:44;;;;;;;;;11.75;6.25;;;;;;;;5315282;27;11469;-75
2023/01/09 08:18:15;;;;;;;;;10.50;10.50;;;;;;;;5298076;27;9467;-75
2023/01/09 08:20:49;;;;;;;;;6.50;6.50;;;;;;;;5282331;27;8802;-76
2023/01/09 08:23:38;;;;;;;;;10.25;9.75;;;;;;;;5301195;27;11359;-75
2023/01/09 08:26:09;;;;;;;;;8.50;8.50;;;;;;;;5317781;27;12163;-74
2023/01/09 08:28:41;;;;;;;;;6.75;6.75;;;;;;;;5300675;27;11380;-77
2023/01/09 08:31:12;;;;;;;;;11.25;8.25;;;;;;;;5316727;27;11495;-76
2023/01/09 08:33:43;;;;;;;;;8.50;8.50;;;;;;;;5280845;27;11383;-76
2023/01/09 08:36:14;;;;;;;;;6.50;6.50;;;;;;;;5280507;27;11516;-75
2023/01/09 08:38:45;;;;;;;;;3.00;3.00;;;;;;;;5333460;27;11383;-76
2023/01/09 08:47:04;;;;;;;;;6.25;4.50;;;;;;;;5315116;27;11449;-80
2023/01/09 08:49:36;;;;;;;;;9.00;9.00;;;;;;;;5314381;27;11473;-75
2023/01/09 08:52:07;;;;;;;;;0.25;0.00;;;;;;;;5279371;27;11444;-76
2023/01/09 08:54:38;;;;;;;;;1.00;1.00;;;;;;;;5277445;27;11379;-75
2023/01/09 08:57:10;;;;;;;;;17.00;17.00;;;;;;;;5260431;27;8908;-77
2023/01/09 08:59:41;;;;;;;;;17.50;16.50;;;;;;;;5294511;27;12281;-77
2023/01/09 09:02:12;;;;;;;;;21.25;17.50;;;;;;;;5300877;27;11543;-77
2023/01/09 09:04:43;;;;;;;;;25.00;25.00;;;;;;;;5314512;27;8776;-75
2023/01/09 09:07:13;;;;;;;;;17.00;16.75;;;;;;;;5297538;27;11465;-77
2023/01/09 09:09:44;;;;;;;;;32.50;31.25;;;;;;;;5297552;27;8772;-77
2023/01/09 09:12:16;;;;;;;;;32.75;32.75;;;;;;;;5308355;27;8787;-77
2023/01/09 09:17:39;;;;;;;;;1.50;1.00;;;;;;;;5315713;27;11610;-77
2023/01/09 09:20:29;;;;;;;;;2.00;2.00;;;;;;;;5314853;27;11390;-78
2023/01/09 09:23:01;;;;;;;;;2.50;2.50;;;;;;;;5297458;27;11405;-78
2023/01/09 09:25:32;;;;;;;;;3.75;3.75;;;;;;;;5280656;27;11391;-76
2023/01/09 09:28:03;;;;;;;;;10.50;10.50;;;;;;;;5281721;27;11366;-77
2023/01/09 09:30:34;;;;;;;;;1.75;1.75;;;;;;;;5298907;27;8800;-76
2023/01/09 09:33:05;;;;;;;;;11.50;11.50;;;;;;;;5314872;27;11387;-77
2023/01/09 09:35:36;;;;;;;;;6.00;6.00;;;;;;;;5296799;27;11366;-76
2023/01/09 09:38:07;;;;;;;;;3.00;3.00;;;;;;;;5309673;27;11469;-78
2023/01/09 09:40:53;;;;;;;;;4.00;4.00;;;;;;;;5260857;28;8784;-77
2023/01/09 09:46:32;;;;;;;;;16.75;16.25;;;;;;;;5275548;28;11635;-77
2023/01/09 09:49:30;;;;;;;;;17.25;14.75;;;;;;;;5277912;27;11568;-76
2023/01/09 09:52:01;;;;;;;;;21.25;19.50;;;;;;;;5274356;27;8806;-79
2023/01/09 09:54:34;;;;;;;;;9.75;9.75;;;;;;;;5258594;27;11531;-73
2023/01/09 09:57:09;;;;;;;;;8.50;8.50;;;;;;;;5270975;28;11535;-79
2023/01/09 09:59:42;;;;;;;;;9.00;9.00;;;;;;;;5281919;27;11852;-78
2023/01/09 10:02:31;;;;;;;;;1.00;1.00;;;;;;;;5274927;27;11421;-80
2023/01/09 10:05:11;;;;;;;;;6.75;6.75;;;;;;;;5275147;27;11438;-76
2023/01/09 10:07:47;;;;;;;;;7.00;7.00;;;;;;;;5276357;27;11410;-83
2023/01/09 10:10:25;;;;;;;;;8.25;8.25;;;;;;;;5275077;27;11391;-79
2023/01/09 10:14:03;;;;;;;;;4.00;4.00;;;;;;;;5292132;27;11441;-79
2023/01/09 10:16:01;;;;;;;;;1.00;1.00;;;;;;;;5297141;27;11412;-79
2023/01/09 10:18:35;;;;;;;;;1.00;1.00;;;;;;;;5270673;28;11417;-78
2023/01/09 10:21:38;;;;;;;;;3.00;3.00;;;;;;;;5256967;28;12130;-80
2023/01/09 10:24:38;;;;;;;;;5.50;5.25;;;;;;;;5245799;28;11435;-82
2023/01/09 10:27:54;;;;;;;;;6.00;6.00;;;;;;;;5294407;27;11394;-82
2023/01/09 10:30:39;;;;;;;;;10.50;10.00;;;;;;;;5293701;27;11445;-82
2023/01/09 10:33:27;;;;;;;;;17.75;16.00;;;;;;;;5280200;27;11398;-82
2023/01/09 10:36:17;;;;;;;;;9.00;9.00;;;;;;;;5279785;27;11441;-81
2023/01/09 10:38:49;;;;;;;;;22.00;22.00;;;;;;;;5279658;27;11446;-81
2023/01/09 10:41:23;;;;;;;;;10.00;10.00;;;;;;;;5298964;27;11600;-80
2023/01/09 10:43:57;;;;;;;;;7.50;7.50;;;;;;;;5296175;27;11457;-80
2023/01/09 10:46:33;;;;;;;;;10.25;10.25;;;;;;;;5291475;27;11472;-81
2023/01/09 10:49:10;;;;;;;;;4.00;4.00;;;;;;;;5309186;27;11606;-81
2023/01/09 10:51:48;;;;;;;;;4.50;4.50;;;;;;;;5292697;27;11392;-80
2023/01/09 10:54:22;;;;;;;;;13.50;13.00;;;;;;;;5275497;27;11371;-80
2023/01/09 10:56:55;;;;;;;;;10.00;9.50;;;;;;;;5291711;27;11438;-81
2023/01/09 10:59:44;;;;;;;;;24.50;23.00;;;;;;;;5297249;27;11342;-81
2023/01/09 11:02:27;;;;;;;;;12.75;12.50;;;;;;;;5263830;27;11481;-79
2023/01/09 11:04:57;;;;;;;;;2.75;2.25;;;;;;;;5300277;27;11463;-78
2023/01/09 11:07:31;;;;;;;;;8.25;8.00;;;;;;;;5306409;27;11396;-80
2023/01/09 11:10:21;;;;;;;;;10.00;10.00;;;;;;;;5317243;27;8845;-81
2023/01/09 11:13:12;;;;;;;;;9.75;9.75;;;;;;;;5286860;27;11365;-80
2023/01/09 11:15:42;;;;;;;;;4.00;4.00;;;;;;;;5281678;27;11434;-79
2023/01/09 11:18:15;;;;;;;;;4.50;4.50;;;;;;;;5313962;27;11372;-80
2023/01/09 11:20:47;;;;;;;;;1.00;0.00;;;;;;;;5296991;27;9430;-80
2023/01/09 11:23:38;;;;;;;;;4.50;4.50;;;;;;;;5313214;27;12013;-80
2023/01/09 11:26:21;;;;;;;;;13.50;13.00;;;;;;;;5264974;28;11442;-80
2023/01/09 11:29:05;;;;;;;;;12.75;12.00;;;;;;;;5261102;28;11442;-80
2023/01/09 11:31:36;;;;;;;;;6.75;6.75;;;;;;;;5257785;28;11467;-80
2023/01/09 11:34:35;;;;;;;;;6.50;6.25;;;;;;;;5274769;28;11348;-80
2023/01/09 11:37:09;;;;;;;;;6.75;6.75;;;;;;;;5266126;27;11435;-80
2023/01/09 11:39:44;;;;;;;;;4.50;4.50;;;;;;;;5294673;27;11351;-80
2023/01/09 11:42:49;;;;;;;;;5.50;5.50;;;;;;;;5312901;27;11414;-81
2023/01/09 11:45:24;;;;;;;;;1.00;1.00;;;;;;;;5314023;27;11468;-80
2023/01/09 11:47:55;;;;;;;;;12.50;12.50;;;;;;;;5297712;27;11345;-82
2023/01/09 11:50:52;;;;;;;;;3.00;3.00;;;;;;;;5316151;27;11407;-79
2023/01/09 11:53:24;;;;;;;;;5.50;4.50;;;;;;;;5293794;28;11367;-80
2023/01/09 11:56:15;;;;;;;;;9.50;9.50;;;;;;;;5313850;27;11535;-79
2023/01/09 11:58:46;;;;;;;;;12.50;12.50;;;;;;;;5294679;27;11413;-80
2023/01/09 12:01:29;;;;;;;;;3.25;3.25;;;;;;;;5277856;27;11396;-79
2023/01/09 12:04:06;;;;;;;;;11.50;10.00;;;;;;;;5312141;27;11350;-80
2023/01/09 12:06:37;;;;;;;;;0.50;0.50;;;;;;;;5294862;27;11388;-78
2023/01/09 12:09:21;;;;;;;;;38.50;36.50;;;;;;;;5311103;27;11356;-80
2023/01/09 12:12:00;;;;;;;;;14.50;11.00;;;;;;;;5296024;27;8915;-80
2023/01/09 12:14:41;;;;;;;;;32.50;30.50;;;;;;;;5316325;27;11510;-81
2023/01/09 12:17:11;;;;;;;;;5.50;5.50;;;;;;;;5316706;27;11607;-81
2023/01/09 12:19:52;;;;;;;;;23.00;21.50;;;;;;;;5334636;27;11339;-80
2023/01/09 12:23:03;;;;;;;;;4.00;4.00;;;;;;;;5345341;27;8887;-79
2023/01/09 12:25:43;;;;;;;;;22.25;21.00;;;;;;;;5326170;27;11353;-78
2023/01/09 12:28:37;;;;;;;;;37.75;34.00;;;;;;;;5319912;27;11470;-80
2023/01/09 12:31:45;;;;;;;;;27.50;27.25;;;;;;;;5322845;27;11500;-77
2023/01/09 12:34:46;;;;;;;;;10.50;10.50;;;;;;;;5294411;27;11457;-77
2023/01/09 12:37:26;;;;;;;;;6.50;6.50;;;;;;;;5292790;27;11506;-75
2023/01/09 12:40:06;;;;;;;;;10.00;9.00;;;;;;;;5293232;27;12168;-76
2023/01/09 12:42:56;;;;;;;;;9.25;9.25;;;;;;;;5311181;27;11345;-76
2023/01/09 12:45:46;;;;;;;;;8.25;8.25;;;;;;;;5259020;27;11394;-76
2023/01/09 12:48:54;;;;;;;;;5.75;5.00;;;;;;;;5311278;27;11385;-75
2023/01/09 12:52:01;;;;;;;;;4.50;4.50;;;;;;;;5296265;27;11353;-75
2023/01/09 12:54:54;;;;;;;;;6.25;6.25;;;;;;;;5293809;27;11352;-75
2023/01/09 12:57:41;;;;;;;;;9.00;9.00;;;;;;;;5293302;27;11387;-76
2023/01/09 13:00:33;;;;;;;;;22.00;21.25;;;;;;;;5316705;27;11377;-76
2023/01/09 13:03:24;;;;;;;;;8.50;8.50;;;;;;;;5331154;27;11535;-76
2023/01/09 13:06:00;;;;;;;;;13.00;11.75;;;;;;;;5332409;27;11344;-76
2023/01/09 13:08:44;;;;;;;;;5.50;5.50;;;;;;;;5314608;27;11417;-76
2023/01/09 13:11:19;;;;;;;;;9.00;9.00;;;;;;;;5322989;27;11541;-76
2023/01/09 13:13:58;;;;;;;;;8.50;8.50;;;;;;;;5311635;27;12104;-76
2023/01/09 13:16:35;;;;;;;;;6.75;6.75;;;;;;;;5292646;27;11670;-75
2023/01/09 13:19:12;;;;;;;;;19.50;19.50;;;;;;;;5292847;27;11351;-75
2023/01/09 13:21:43;;;;;;;;;13.00;13.00;;;;;;;;5291531;27;11410;-75
2023/01/09 13:24:21;;;;;;;;;12.50;12.50;;;;;;;;5309520;27;11627;-76
2023/01/09 13:26:56;;;;;;;;;14.00;11.75;;;;;;;;5277152;28;11513;-77
2023/01/09 13:29:29;;;;;;;;;3.50;3.50;;;;;;;;5293732;27;11609;-77
2023/01/09 13:32:18;;;;;;;;;9.50;9.50;;;;;;;;5295608;27;12055;-76
2023/01/09 13:34:51;;;;;;;;;6.00;6.00;;;;;;;;5310088;27;11371;-75
2023/01/09 13:37:27;;;;;;;;;7.25;7.25;;;;;;;;5276390;27;8846;-76
2023/01/09 13:40:04;;;;;;;;;4.50;4.50;;;;;;;;5293671;27;11335;-76
2023/01/09 13:43:00;;;;;;;;;20.75;20.00;;;;;;;;5309620;27;11357;-76
2023/01/09 13:45:32;;;;;;;;;5.00;5.00;;;;;;;;5309924;27;12215;-77
2023/01/09 13:48:10;;;;;;;;;12.50;12.50;;;;;;;;5298153;27;11346;-77
2023/01/09 13:50:41;;;;;;;;;5.50;5.50;;;;;;;;5311019;27;11361;-75
2023/01/09 13:53:18;;;;;;;;;8.00;8.00;;;;;;;;5291729;27;11345;-75
2023/01/09 13:55:58;;;;;;;;;9.50;9.25;;;;;;;;5292184;27;11355;-75
2023/01/09 13:58:49;;;;;;;;;9.25;8.75;;;;;;;;5294594;27;11474;-75
2023/01/09 14:01:23;;;;;;;;;11.50;11.50;;;;;;;;5277362;27;11400;-75
2023/01/09 14:04:12;;;;;;;;;6.00;6.00;;;;;;;;5312267;27;11493;-74
2023/01/09 14:07:20;;;;;;;;;12.25;11.75;;;;;;;;5309038;27;11384;-75
2023/01/09 14:13:42;;;;;;;;;1.00;1.00;;;;;;;;5308022;27;11363;-76
2023/01/09 14:16:13;;;;;;;;;1.00;1.00;;;;;;;;5308366;27;11346;-77
2023/01/09 14:18:46;;;;;;;;;4.25;4.25;;;;;;;;5290847;27;11438;-78
2023/01/09 14:25:40;;;;;;;;;6.00;6.00;;;;;;;;5309259;27;11428;-75
2023/01/09 14:32:41;;;;;;;;;3.00;3.00;;;;;;;;5308779;27;8747;-78
2023/01/09 14:35:15;;;;;;;;;2.50;2.50;;;;;;;;5290583;27;11412;-75
2023/01/09 14:37:50;;;;;;;;;23.50;23.50;;;;;;;;5285961;28;11419;-77
2023/01/09 14:44:42;;;;;;;;;6.75;6.75;;;;;;;;5308550;27;11463;-79
2023/01/09 14:47:22;;;;;;;;;9.25;9.25;;;;;;;;5291292;27;11458;-76
2023/01/09 14:54:30;;;;;;;;;17.50;17.50;;;;;;;;5308344;27;11570;-74
2023/01/09 14:57:04;;;;;;;;;14.75;13.00;;;;;;;;5291127;27;11495;-74
2023/01/09 15:00:00;;;;;;;;;1.00;1.00;;;;;;;;5307002;27;11486;-76
2023/01/09 15:02:51;;;;;;;;;8.00;8.00;;;;;;;;5309893;27;11385;-73
2023/01/09 15:09:46;;;;;;;;;9.00;9.00;;;;;;;;5328626;27;11492;-74
2023/01/09 15:12:21;;;;;;;;;2.50;2.50;;;;;;;;5290691;27;11479;-72
2023/01/09 15:14:54;;;;;;;;;0.00;0.00;;;;;;;;5291312;27;11368;-76
2023/01/09 15:21:57;;;;;;;;;9.25;9.25;;;;;;;;5309633;27;11329;-76
2023/01/09 15:24:29;;;;;;;;;4.50;4.50;;;;;;;;5300297;27;11384;-74
2023/01/09 15:27:09;;;;;;;;;9.25;9.00;;;;;;;;5308084;27;12085;-76
2023/01/09 15:34:04;;;;;;;;;1.00;1.00;;;;;;;;5312797;27;11356;-78
2023/01/09 15:36:36;;;;;;;;;10.00;7.00;;;;;;;;5310583;27;11389;-80
2023/01/09 15:39:07;;;;;;;;;20.75;15.50;;;;;;;;5279135;27;8769;-78
2023/01/09 15:44:29;;;;;;;;;2.50;2.50;;;;;;;;5314053;27;11301;-77
2023/01/09 15:47:21;;;;;;;;;0.25;0.25;;;;;;;;5316181;27;11099;-77
2023/01/09 15:49:54;;;;;;;;;10.50;10.50;;;;;;;;5299227;27;11095;-77
2023/01/09 15:52:25;;;;;;;;;1.50;1.50;;;;;;;;5282027;27;11300;-77
2023/01/09 15:54:56;;;;;;;;;15.25;12.25;;;;;;;;5298862;27;11346;-79
2023/01/09 15:57:34;;;;;;;;;5.00;5.00;;;;;;;;5299102;27;8797;-76
2023/01/09 16:00:29;;;;;;;;;7.75;7.75;;;;;;;;5284223;27;11263;-76
2023/01/09 16:03:22;;;;;;;;;8.50;8.50;;;;;;;;5319640;27;10931;-76
2023/01/09 16:10:31;;;;;;;;;7.50;7.50;;;;;;;;5338476;27;11008;-78
2023/01/09 16:13:03;;;;;;;;;2.50;2.50;;;;;;;;5287203;27;10804;-76
2023/01/09 16:15:34;;;;;;;;;4.00;4.00;;;;;;;;5317187;27;10578;-77
2023/01/09 16:22:31;;;;;;;;;15.50;15.50;;;;;;;;5334369;27;10663;-77
2023/01/09 16:25:21;;;;;;;;;0.00;0.00;;;;;;;;5318679;27;11334;-77
2023/01/09 16:28:29;;;;;;;;;10.50;10.50;;;;;;;;5285089;27;10928;-76
2023/01/09 16:31:25;;;;;;;;;6.00;6.00;;;;;;;;5281556;27;11384;-77
2023/01/09 16:34:03;;;;;;;;;8.25;8.25;;;;;;;;5301043;27;11571;-75
2023/01/09 16:36:34;;;;;;;;;14.50;14.50;;;;;;;;5337821;27;11003;-76
2023/01/09 16:39:12;;;;;;;;;7.50;7.50;;;;;;;;5284231;27;11065;-75
2023/01/09 16:44:34;;;;;;;;;7.00;7.00;;;;;;;;5301922;27;10985;-78
2023/01/09 16:47:07;;;;;;;;;7.25;7.25;;;;;;;;5316860;27;11323;-80
2023/01/09 16:49:38;;;;;;;;;5.50;5.50;;;;;;;;5280877;27;10732;-76
2023/01/09 16:52:16;;;;;;;;;6.50;6.50;;;;;;;;5297894;27;10525;-75
2023/01/09 16:54:47;;;;;;;;;6.25;4.50;;;;;;;;5281600;27;11373;-76
2023/01/09 16:57:21;;;;;;;;;3.00;3.00;;;;;;;;5299061;27;10601;-74
2023/01/09 16:59:52;;;;;;;;;6.25;6.25;;;;;;;;5299290;27;10603;-74
2023/01/09 17:02:41;;;;;;;;;9.50;9.50;;;;;;;;5302013;27;10718;-76
2023/01/09 17:05:12;;;;;;;;;8.00;8.00;;;;;;;;5297367;27;10846;-77
2023/01/09 17:07:43;;;;;;;;;15.75;15.50;;;;;;;;5314779;27;11398;-76
2023/01/09 17:10:20;;;;;;;;;21.50;21.50;;;;;;;;5315396;27;11060;-77
2023/01/09 17:12:51;;;;;;;;;16.50;16.50;;;;;;;;5300825;27;8742;-77
2023/01/09 17:15:22;;;;;;;;;16.25;16.00;;;;;;;;5280757;27;11339;-75